createdAt,value
2022-08-01T00:05:24.746Z,20.3
2022-08-01T00:11:18.023Z,19.7
2022-08-01T00:16:53.122Z,20
2022-08-01T00:22:13.938Z,22.3
2022-08-01T00:28:02.336Z,22.7
2022-08-01T00:39:21.538Z,18.9
2022-08-01T00:44:43.160Z,19
2022-08-01T00:50:12.232Z,19.6
2022-08-01T00:55:59.871Z,19.5
2022-08-01T01:01:24.793Z,18.9
2022-08-01T01:07:00.079Z,18.4
2022-08-01T01:12:41.783Z,19
2022-08-01T01:23:51.190Z,20.3
2022-08-01T01:29:20.153Z,21.1
2022-08-01T01:34:53.360Z,21
2022-08-01T01:40:41.464Z,20
2022-08-01T01:46:22.258Z,18.5
2022-08-01T01:51:39.602Z,18.1
2022-08-01T01:57:15.310Z,17.9
2022-08-01T02:02:56.662Z,18.1
2022-08-01T02:08:23.539Z,18.1
2022-08-01T02:14:20.925Z,18
2022-08-01T02:19:45.670Z,17.9
2022-08-01T02:25:30.479Z,17.8
2022-08-01T02:30:51.025Z,17.8
2022-08-01T02:36:45.737Z,17.5
2022-08-01T02:42:13.036Z,17.4
2022-08-01T02:47:37.428Z,17.5
2022-08-01T02:53:38.961Z,17.4
2022-08-01T02:58:55.675Z,17.3
2022-08-01T03:04:16.985Z,17.4
2022-08-01T03:10:15.789Z,17.4
2022-08-01T03:15:31.360Z,17.1
2022-08-01T03:21:11.272Z,16.7
2022-08-01T03:26:58.306Z,16.8
2022-08-01T03:32:33.571Z,16.8
2022-08-01T03:38:17.445Z,16.9
2022-08-01T03:43:36.535Z,16.8
2022-08-01T03:49:14.165Z,16.8
2022-08-01T03:54:56.392Z,16.9
2022-08-01T04:00:08.106Z,17
2022-08-01T04:05:40.755Z,16.9
2022-08-01T04:11:34.109Z,17
2022-08-01T04:17:06.179Z,17.1
2022-08-01T04:22:39.090Z,16.8
2022-08-01T04:28:07.858Z,16.8
2022-08-01T04:33:54.265Z,16.8
2022-08-01T04:39:34.664Z,16.7
2022-08-01T04:44:50.339Z,16.6
2022-08-01T04:50:34.912Z,16.6
2022-08-01T04:56:03.725Z,17.1
2022-08-01T05:01:42.686Z,17.2
2022-08-01T05:07:27.983Z,17.6
2022-08-01T05:13:02.269Z,17.4
2022-08-01T05:18:24.256Z,17.4
2022-08-01T05:23:57.534Z,17.3
2022-08-01T05:29:44.075Z,18.1
2022-08-01T05:35:17.972Z,18.6
2022-08-01T05:40:42.799Z,18.9
2022-08-01T05:46:34.087Z,18.9
2022-08-01T05:52:09.576Z,18.7
2022-08-01T05:57:44.404Z,18.9
2022-08-01T06:03:26.613Z,19.7
2022-08-01T06:08:46.096Z,20.8
2022-08-01T06:14:28.984Z,22
2022-08-01T06:20:00.001Z,21.6
2022-08-01T06:25:30.324Z,20.6
2022-08-01T06:30:59.204Z,20.5
2022-08-01T06:36:52.526Z,20.5
2022-08-01T06:42:34.156Z,20.3
2022-08-01T06:47:54.249Z,20
2022-08-01T06:53:25.093Z,20.8
2022-08-01T06:59:13.035Z,21
2022-08-01T07:04:45.503Z,21.6
2022-08-01T07:10:24.225Z,21.9
2022-08-01T07:15:50.811Z,21.8
2022-08-01T07:21:42.947Z,22.4
2022-08-01T07:27:21.486Z,23.8
2022-08-01T07:32:55.331Z,22.9
2022-08-01T07:44:10.071Z,22.9
2022-08-01T07:49:40.493Z,23.1
2022-08-01T07:55:09.583Z,24.3
2022-08-01T08:01:13.939Z,24.3
2022-08-01T08:06:46.410Z,23.5
2022-08-01T08:12:13.742Z,23.8
2022-08-01T08:17:50.253Z,24.3
2022-08-01T08:23:43.398Z,24.5
2022-08-01T08:29:21.451Z,25.1
2022-08-01T08:34:37.672Z,24.6
2022-08-01T08:40:41.482Z,24.8
2022-08-01T08:45:59.945Z,25.7
2022-08-01T08:51:51.851Z,25.7
2022-08-01T08:57:32.055Z,25.3
2022-08-01T09:03:01.785Z,26.2
2022-08-01T09:08:37.754Z,26.4
2022-08-01T09:14:36.361Z,26
2022-08-01T09:19:48.112Z,26.3
2022-08-01T09:25:46.412Z,27
2022-08-01T09:31:16.082Z,26.7
2022-08-01T09:36:57.706Z,26.6
2022-08-01T09:42:38.876Z,26.9
2022-08-01T09:48:18.775Z,27.7
2022-08-01T09:54:03.372Z,27.9
2022-08-01T09:59:52.822Z,27.6
2022-08-01T10:05:29.870Z,28.2
2022-08-01T10:10:52.028Z,28.6
2022-08-01T10:16:33.164Z,27.8
2022-08-01T10:22:30.394Z,28.2
2022-08-01T10:28:01.854Z,27.3
2022-08-01T10:33:50.305Z,29.1
2022-08-01T10:39:28.285Z,29.4
2022-08-01T10:44:55.974Z,29.2
2022-08-01T10:50:32.501Z,28.1
2022-08-01T10:56:26.332Z,30
2022-08-01T11:01:48.796Z,29.3
2022-08-01T11:07:46.984Z,29.6
2022-08-01T11:13:17.708Z,29.9
2022-08-01T11:18:50.148Z,30.5
2022-08-01T11:24:44.586Z,29.5
2022-08-01T11:30:15.871Z,30.4
2022-08-01T11:35:51.725Z,31
2022-08-01T11:41:50.689Z,30.6
2022-08-01T11:47:15.662Z,30.7
2022-08-01T11:52:56.289Z,30.6
2022-08-01T11:58:51.063Z,29.3
2022-08-01T12:04:26.804Z,29.8
2022-08-01T12:10:06.888Z,31
2022-08-01T12:15:40.439Z,30.3
2022-08-01T12:21:20.064Z,30.8
2022-08-01T12:27:01.250Z,29.8
2022-08-01T12:32:45.592Z,30
2022-08-01T12:38:18.909Z,29.7
2022-08-01T12:44:04.420Z,30.4
2022-08-01T12:49:54.978Z,30.2
2022-08-01T12:55:33.904Z,30.9
2022-08-01T13:01:23.206Z,30.1
2022-08-01T13:06:53.609Z,30.2
2022-08-01T13:12:37.907Z,29.7
2022-08-01T13:18:12.525Z,29.8
2022-08-01T13:24:00.604Z,29
2022-08-01T13:29:30.566Z,29.1
2022-08-01T13:35:15.778Z,29.1
2022-08-01T13:40:58.663Z,29.8
2022-08-01T13:46:18.689Z,29.9
2022-08-01T13:52:13.485Z,29.2
2022-08-01T13:57:43.434Z,29.2
2022-08-01T14:03:33.703Z,29.4
2022-08-01T14:08:53.715Z,30.2
2022-08-01T14:14:48.456Z,30.6
2022-08-01T14:20:34.293Z,30
2022-08-01T14:26:07.020Z,30.9
2022-08-01T14:31:34.229Z,29.6
2022-08-01T14:37:07.281Z,29.5
2022-08-01T14:43:19.118Z,29.4
2022-08-01T14:48:29.819Z,30.1
2022-08-01T14:54:31.098Z,29.5
2022-08-01T14:59:57.450Z,30
2022-08-01T15:05:32.305Z,29.7
2022-08-01T15:11:14.049Z,29.6
2022-08-01T15:17:07.542Z,29.5
2022-08-01T15:22:32.381Z,29
2022-08-01T15:28:27.949Z,29.2
2022-08-01T15:33:49.392Z,29.3
2022-08-01T15:39:19.302Z,29
2022-08-01T15:44:59.280Z,29.9
2022-08-01T15:50:42.161Z,29.1
2022-08-01T15:56:24.147Z,29.2
2022-08-01T16:02:07.665Z,28.8
2022-08-01T16:07:57.048Z,28.6
2022-08-01T16:19:10.681Z,28.3
2022-08-01T16:24:40.083Z,28.2
2022-08-01T16:30:07.141Z,28.2
2022-08-01T16:36:03.036Z,28
2022-08-01T16:41:23.463Z,27.9
2022-08-01T16:47:10.993Z,27.7
2022-08-01T16:52:58.897Z,27.8
2022-08-01T16:58:15.083Z,27.7
2022-08-01T17:04:05.790Z,27.5
2022-08-01T17:09:51.364Z,27.5
2022-08-01T17:15:23.724Z,27.5
2022-08-01T17:20:53.254Z,27.3
2022-08-01T17:26:27.927Z,27.3
2022-08-01T17:32:02.861Z,27
2022-08-01T17:37:56.156Z,27.1
2022-08-01T17:43:25.360Z,27
2022-08-01T17:49:28.735Z,26.8
2022-08-01T17:54:46.505Z,26.8
2022-08-01T18:00:23.872Z,26.7
2022-08-01T18:05:49.950Z,26.5
2022-08-01T18:11:45.422Z,26.4
2022-08-01T18:17:21.003Z,26.4
2022-08-01T18:22:58.051Z,26.3
2022-08-01T18:28:30.795Z,26
2022-08-01T18:33:55.590Z,25.8
2022-08-01T18:39:54.499Z,26
2022-08-01T18:51:02.790Z,26
2022-08-01T18:56:37.521Z,25.5
2022-08-01T19:02:04.316Z,25.7
2022-08-01T19:08:04.680Z,25.6
2022-08-01T19:13:29.469Z,25.5
2022-08-01T19:19:04.470Z,25.4
2022-08-01T19:30:33.011Z,25.3
2022-08-01T19:35:57.118Z,24.8
2022-08-01T19:41:37.726Z,24.4
2022-08-01T19:47:09.796Z,24.2
2022-08-01T19:53:01.991Z,24.3
2022-08-01T19:58:26.764Z,24.1
2022-08-01T20:04:16.140Z,24.3
2022-08-01T20:09:46.743Z,24.2
2022-08-01T20:15:20.899Z,24.5
2022-08-01T20:20:51.202Z,23.9
2022-08-01T20:26:29.235Z,24.2
2022-08-01T20:32:13.921Z,23.9
2022-08-01T20:38:03.575Z,23.8
2022-08-01T20:43:11.822Z,23.8
2022-08-01T20:48:52.449Z,24.1
2022-08-01T20:54:21.153Z,23
2022-08-01T21:00:08.139Z,23.4
2022-08-01T21:05:30.947Z,23.6
2022-08-01T21:11:30.125Z,23.1
2022-08-01T21:17:03.124Z,23.2
2022-08-01T21:22:26.788Z,23.6
2022-08-01T21:28:20.151Z,23.1
2022-08-01T21:33:38.717Z,23.2
2022-08-01T21:39:34.344Z,23.2
2022-08-01T21:45:03.344Z,23.2
2022-08-01T21:50:47.721Z,23.1
2022-08-01T21:56:13.591Z,23.1
2022-08-01T22:02:01.039Z,22.8
2022-08-01T22:07:38.717Z,22.3
2022-08-01T22:13:13.693Z,22.5
2022-08-01T22:18:45.996Z,22.8
2022-08-01T22:24:27.310Z,22.5
2022-08-01T22:30:01.212Z,22.5
2022-08-01T22:35:18.928Z,22.4
2022-08-01T22:41:00.008Z,22.5
2022-08-01T22:46:42.939Z,22.5
2022-08-01T22:52:19.771Z,22.4
2022-08-01T22:57:59.381Z,22.3
2022-08-01T23:03:39.299Z,22
2022-08-01T23:08:56.167Z,21.6
2022-08-01T23:14:34.407Z,21.3
2022-08-01T23:20:10.059Z,21.5
2022-08-01T23:25:50.040Z,21.2
2022-08-01T23:31:55.609Z,21.3
2022-08-01T23:37:18.925Z,21.1
2022-08-01T23:42:45.804Z,20.3
2022-08-01T23:48:20.558Z,20.6
2022-08-01T23:54:05.507Z,21.2
2022-08-01T23:59:52.577Z,20.5
